Time;durP1;ratioP1;P1;durP2;ratioP2;P2;SDS_P1;SDS_P2;PMS_P1;PMS_P2;Temp;Humidity;BMP_temperature;BMP_pressure;BME280_temperature;BME280_humidity;BME280_pressure;Samples;Min_cycle;Max_cycle;Signal;HPM_P1;HPM_P2
2023/02/02 00:00:59;;;;;;;11.88;8.38;;;;;20.90;100875.00;;;;2101772;28;20230;-53
2023/02/02 00:02:00;;;;;;;12.33;9.57;;;;;20.90;100882.00;;;;2104519;28;20273;-52
2023/02/02 00:03:00;;;;;;;10.57;8.13;;;;;20.90;100881.00;;;;2103252;28;20211;-53
2023/02/02 00:04:01;;;;;;;13.20;9.23;;;;;20.90;100887.00;;;;2104380;28;20222;-53
2023/02/02 00:05:01;;;;;;;11.50;8.10;;;;;20.90;100886.00;;;;2102783;28;20226;-52
2023/02/02 00:06:03;;;;;;;10.40;8.10;;;;;20.80;100887.00;;;;2104367;28;20204;-51
2023/02/02 00:07:06;;;;;;;10.45;8.00;;;;;20.80;100893.00;;;;2104534;28;20219;-52
2023/02/02 00:08:06;;;;;;;11.40;7.78;;;;;20.80;100890.00;;;;2103269;28;20293;-55
2023/02/02 00:09:06;;;;;;;11.83;8.70;;;;;20.80;100899.00;;;;2104329;28;20211;-55
2023/02/02 00:10:07;;;;;;;10.47;8.17;;;;;20.90;100890.00;;;;2104207;28;20214;-53
2023/02/02 00:11:08;;;;;;;11.87;7.60;;;;;20.80;100888.00;;;;2104078;28;20242;-54
2023/02/02 00:12:08;;;;;;;10.13;7.40;;;;;20.80;100887.00;;;;2104268;28;20234;-53
2023/02/02 00:13:08;;;;;;;10.53;7.00;;;;;20.80;100886.00;;;;2087302;28;20201;-53
2023/02/02 00:14:09;;;;;;;9.53;7.60;;;;;20.80;100879.00;;;;2087299;28;20212;-53
2023/02/02 00:15:09;;;;;;;12.00;7.57;;;;;20.80;100880.00;;;;2095541;28;20215;-52
2023/02/02 00:16:25;;;;;;;9.80;7.10;;;;;20.80;100891.00;;;;2095327;28;20218;-53
2023/02/02 00:17:25;;;;;;;9.13;7.30;;;;;20.80;100887.00;;;;2103308;28;20207;-53
2023/02/02 00:18:25;;;;;;;10.03;7.83;;;;;20.80;100886.00;;;;2102538;28;20300;-52
2023/02/02 00:19:29;;;;;;;9.63;7.30;;;;;20.80;100882.00;;;;2104381;28;20212;-52
2023/02/02 00:20:29;;;;;;;9.93;7.70;;;;;20.80;100884.00;;;;2095495;28;20224;-52
2023/02/02 00:21:30;;;;;;;11.03;8.00;;;;;20.80;100884.00;;;;2087147;28;20269;-52
2023/02/02 00:22:30;;;;;;;9.03;6.10;;;;;20.80;100880.00;;;;2095351;28;20298;-52
2023/02/02 00:23:30;;;;;;;10.00;6.60;;;;;20.80;100885.00;;;;2104001;28;20208;-52
2023/02/02 00:24:31;;;;;;;9.50;6.97;;;;;20.80;100870.00;;;;2103910;28;20219;-52
2023/02/02 00:25:31;;;;;;;9.33;6.67;;;;;20.70;100878.00;;;;2104249;28;20227;-52
2023/02/02 00:26:31;;;;;;;9.30;6.50;;;;;20.70;100882.00;;;;2104246;28;20215;-52
2023/02/02 00:27:32;;;;;;;10.70;7.17;;;;;20.80;100886.00;;;;2095229;28;20212;-53
2023/02/02 00:28:32;;;;;;;10.30;6.20;;;;;20.70;100887.00;;;;2094272;28;20258;-53
2023/02/02 00:29:32;;;;;;;16.30;7.30;;;;;20.70;100893.00;;;;2104346;28;20286;-52
2023/02/02 00:30:33;;;;;;;10.73;6.73;;;;;20.70;100883.00;;;;2104409;28;20215;-54
2023/02/02 00:31:33;;;;;;;9.00;5.77;;;;;20.70;100893.00;;;;2104121;28;20219;-52
2023/02/02 00:32:33;;;;;;;9.87;6.23;;;;;20.50;100882.00;;;;2103974;28;20294;-52
2023/02/02 00:33:34;;;;;;;8.23;6.13;;;;;20.70;100889.00;;;;2103823;28;20275;-52
2023/02/02 00:34:34;;;;;;;10.93;6.37;;;;;20.70;100885.00;;;;2104284;28;20244;-52
2023/02/02 00:35:34;;;;;;;9.40;5.70;;;;;20.80;100874.00;;;;2103783;28;20211;-52
2023/02/02 00:36:35;;;;;;;8.57;6.30;;;;;20.80;100881.00;;;;2093415;28;20208;-52
2023/02/02 00:37:35;;;;;;;10.70;6.60;;;;;20.70;100892.00;;;;2095329;28;20806;-52
2023/02/02 00:38:36;;;;;;;8.90;5.77;;;;;20.70;100877.00;;;;2102759;28;20638;-52
2023/02/02 00:39:37;;;;;;;12.57;6.60;;;;;20.70;100884.00;;;;2100691;28;20204;-52
2023/02/02 00:40:37;;;;;;;9.43;5.70;;;;;20.70;100880.00;;;;2103603;28;20221;-52
2023/02/02 00:41:37;;;;;;;10.97;5.67;;;;;20.70;100885.00;;;;2103496;28;20227;-52
2023/02/02 00:42:38;;;;;;;15.83;6.07;;;;;20.70;100888.00;;;;2103863;28;20222;-51
2023/02/02 00:43:38;;;;;;;9.00;5.50;;;;;20.70;100888.00;;;;2103550;28;20215;-51
2023/02/02 00:45:57;;;;;;;10.98;5.55;;;;;20.70;100882.00;;;;2104300;28;20227;-51
2023/02/02 00:46:58;;;;;;;12.63;5.20;;;;;20.60;100885.00;;;;2104015;28;20207;-52
2023/02/02 00:47:58;;;;;;;9.77;6.10;;;;;20.60;100880.00;;;;2103131;28;20589;-52
2023/02/02 00:48:58;;;;;;;10.57;6.60;;;;;20.60;100878.00;;;;2104209;28;20223;-52
2023/02/02 00:49:59;;;;;;;13.73;8.10;;;;;20.60;100872.00;;;;2103944;28;20238;-52
2023/02/02 00:51:01;;;;;;;10.57;8.43;;;;;20.60;100875.00;;;;2103510;28;20219;-52
2023/02/02 00:52:01;;;;;;;12.35;9.20;;;;;20.60;100878.00;;;;2093595;28;20246;-51
2023/02/02 00:53:01;;;;;;;14.63;9.80;;;;;20.60;100877.00;;;;2095200;28;20216;-51
2023/02/02 00:54:02;;;;;;;17.13;11.23;;;;;20.60;100874.00;;;;2102350;28;20246;-51
2023/02/02 00:55:03;;;;;;;18.10;11.27;;;;;20.60;100877.00;;;;2103716;28;20616;-51
2023/02/02 00:56:04;;;;;;;19.20;12.10;;;;;20.60;100886.00;;;;2101922;28;20212;-51
2023/02/02 00:57:04;;;;;;;21.40;12.93;;;;;20.60;100888.00;;;;2103592;28;20603;-52
2023/02/02 00:58:05;;;;;;;19.70;14.03;;;;;20.60;100895.00;;;;2103397;28;20284;-51
2023/02/02 00:59:05;;;;;;;22.00;14.60;;;;;20.60;100889.00;;;;2104101;28;20635;-52
2023/02/02 01:00:06;;;;;;;20.40;14.40;;;;;20.60;100875.00;;;;2104196;28;20650;-51
2023/02/02 01:01:17;;;;;;;20.75;15.27;;;;;20.50;100889.00;;;;2103781;28;20294;-51
2023/02/02 01:02:17;;;;;;;23.52;14.88;;;;;20.60;100888.00;;;;2103238;28;20309;-52
2023/02/02 01:03:17;;;;;;;24.33;17.27;;;;;20.60;100893.00;;;;2104097;28;20242;-52
2023/02/02 01:04:18;;;;;;;23.70;16.07;;;;;20.60;100884.00;;;;2104084;28;20222;-52
2023/02/02 01:05:18;;;;;;;23.00;16.20;;;;;20.60;100897.00;;;;2104182;28;21027;-52
2023/02/02 01:06:19;;;;;;;22.40;15.43;;;;;20.60;100898.00;;;;2103352;28;20675;-52
2023/02/02 01:07:19;;;;;;;22.67;15.10;;;;;20.60;100890.00;;;;2103554;28;20273;-51
2023/02/02 01:08:19;;;;;;;21.23;14.93;;;;;20.50;100885.00;;;;2102824;28;20228;-52
2023/02/02 01:09:20;;;;;;;23.57;15.30;;;;;20.50;100890.00;;;;2103919;28;20306;-53
2023/02/02 01:10:20;;;;;;;22.50;14.70;;;;;20.50;100874.00;;;;2104030;28;20277;-52
2023/02/02 01:11:21;;;;;;;19.80;14.53;;;;;20.50;100882.00;;;;2104087;28;20223;-51
2023/02/02 01:12:21;;;;;;;22.87;14.70;;;;;20.50;100888.00;;;;2103970;28;20914;-52
2023/02/02 01:13:21;;;;;;;20.73;14.17;;;;;20.50;100882.00;;;;2103709;28;20208;-52
2023/02/02 01:14:22;;;;;;;20.33;14.03;;;;;20.50;100881.00;;;;2103586;28;20211;-52
2023/02/02 01:15:22;;;;;;;18.53;13.30;;;;;20.50;100889.00;;;;2094947;28;20212;-52
2023/02/02 01:16:23;;;;;;;19.67;14.43;;;;;20.50;100884.00;;;;2095142;28;20216;-51
2023/02/02 01:17:23;;;;;;;16.83;12.23;;;;;20.50;100878.00;;;;2103643;28;20290;-52
2023/02/02 01:18:24;;;;;;;17.23;12.37;;;;;20.50;100885.00;;;;2094003;28;20212;-52
2023/02/02 01:19:24;;;;;;;20.60;12.60;;;;;20.50;100879.00;;;;2094496;28;20334;-52
2023/02/02 01:20:24;;;;;;;17.93;11.63;;;;;20.50;100882.00;;;;2103718;28;20211;-51
2023/02/02 01:21:25;;;;;;;16.77;11.30;;;;;20.50;100878.00;;;;2103997;28;20215;-51
2023/02/02 01:22:25;;;;;;;18.07;11.60;;;;;20.40;100883.00;;;;2103753;28;20211;-51
2023/02/02 01:23:26;;;;;;;16.27;11.80;;;;;20.40;100891.00;;;;2103781;28;20449;-52
2023/02/02 01:24:26;;;;;;;15.70;10.83;;;;;20.50;100880.00;;;;2103062;28;20663;-52
2023/02/02 01:25:26;;;;;;;17.57;11.10;;;;;20.50;100898.00;;;;2103303;28;20709;-52
2023/02/02 01:26:27;;;;;;;16.07;11.00;;;;;20.50;100889.00;;;;2103813;28;20730;-51
2023/02/02 01:27:27;;;;;;;13.40;9.77;;;;;20.50;100881.00;;;;2103861;28;20218;-51
2023/02/02 01:28:27;;;;;;;12.60;9.83;;;;;20.40;100878.00;;;;2102771;28;20239;-51
2023/02/02 01:29:28;;;;;;;13.93;10.00;;;;;20.50;100874.00;;;;2103696;28;20216;-51
2023/02/02 01:30:28;;;;;;;12.43;9.30;;;;;20.40;100879.00;;;;2103695;28;20760;-52
2023/02/02 01:31:29;;;;;;;13.23;8.73;;;;;20.40;100875.00;;;;2103345;28;20580;-52
2023/02/02 01:32:29;;;;;;;15.37;8.80;;;;;20.40;100880.00;;;;2103749;28;20249;-52
2023/02/02 01:33:29;;;;;;;13.17;9.00;;;;;20.40;100874.00;;;;2103547;28;20211;-51
2023/02/02 01:34:30;;;;;;;14.33;9.07;;;;;20.40;100878.00;;;;2103431;28;20207;-51
2023/02/02 01:35:30;;;;;;;14.17;9.87;;;;;20.40;100881.00;;;;2103720;28;20227;-51
2023/02/02 01:36:30;;;;;;;14.73;8.20;;;;;20.40;100878.00;;;;2104039;28;20677;-52
2023/02/02 01:37:30;;;;;;;15.40;9.00;;;;;20.40;100875.00;;;;2103676;28;20239;-52
2023/02/02 01:38:31;;;;;;;11.30;7.80;;;;;20.40;100875.00;;;;2102850;28;20207;-51
2023/02/02 01:39:31;;;;;;;12.97;7.63;;;;;20.40;100883.00;;;;2095108;28;20223;-52
2023/02/02 01:40:32;;;;;;;11.57;8.30;;;;;20.40;100882.00;;;;2094439;28;20209;-52
2023/02/02 01:41:32;;;;;;;10.10;7.40;;;;;20.40;100874.00;;;;2103723;28;20207;-51
2023/02/02 01:42:32;;;;;;;12.33;8.37;;;;;20.40;100883.00;;;;2094484;28;20281;-52
2023/02/02 01:43:44;;;;;;;10.23;7.50;;;;;20.40;100884.00;;;;2094957;28;20208;-52
2023/02/02 01:45:20;;;;;;;8.52;6.90;;;;;20.40;100889.00;;;;2103759;28;20222;-52
2023/02/02 01:46:31;;;;;;;11.18;7.47;;;;;20.40;100891.00;;;;2094455;28;20714;-52
2023/02/02 01:47:35;;;;;;;10.38;7.05;;;;;20.40;100891.00;;;;2096078;28;20204;-51
2023/02/02 01:48:35;;;;;;;11.10;6.50;;;;;20.40;100881.00;;;;2093959;28;20208;-51
2023/02/02 01:49:37;;;;;;;11.63;6.90;;;;;20.40;100881.00;;;;2092531;28;20220;-52
2023/02/02 01:50:37;;;;;;;10.02;6.60;;;;;20.40;100882.00;;;;2086500;28;20239;-51
2023/02/02 01:51:46;;;;;;;9.83;6.50;;;;;20.30;100894.00;;;;2086404;28;20267;-52
2023/02/02 01:52:47;;;;;;;10.40;6.32;;;;;20.30;100893.00;;;;2086318;28;20220;-51
2023/02/02 01:53:48;;;;;;;11.65;6.80;;;;;20.30;100889.00;;;;2086587;28;20707;-51
2023/02/02 01:54:55;;;;;;;11.70;7.20;;;;;20.30;100891.00;;;;2078173;28;20213;-52
2023/02/02 01:55:55;;;;;;;8.35;6.03;;;;;20.30;100899.00;;;;2061830;28;20696;-52
2023/02/02 01:57:01;;;;;;;9.33;6.13;;;;;20.30;100897.00;;;;2078104;28;20213;-51
2023/02/02 01:58:10;;;;;;;9.18;5.95;;;;;20.30;100896.00;;;;2086025;28;20204;-51
2023/02/02 01:59:10;;;;;;;9.15;6.45;;;;;20.30;100899.00;;;;2079457;28;20757;-52
2023/02/02 02:00:12;;;;;;;9.57;6.17;;;;;20.30;100903.00;;;;2078058;28;20224;-52
2023/02/02 02:01:12;;;;;;;8.65;6.40;;;;;20.30;100899.00;;;;2077849;28;20218;-52
2023/02/02 02:02:13;;;;;;;9.77;6.07;;;;;20.30;100899.00;;;;2069919;28;20222;-52
2023/02/02 02:03:15;;;;;;;12.00;7.37;;;;;20.30;100913.00;;;;2077882;28;20245;-51
2023/02/02 02:04:16;;;;;;;9.07;6.80;;;;;20.30;100909.00;;;;2094906;28;20204;-52
2023/02/02 02:05:20;;;;;;;8.10;5.90;;;;;20.30;100899.00;;;;2094117;28;20208;-52
2023/02/02 02:06:20;;;;;;;8.90;5.78;;;;;20.30;100905.00;;;;2086401;28;20216;-52
2023/02/02 02:07:21;;;;;;;14.43;6.43;;;;;20.30;100907.00;;;;2085793;28;20637;-51
2023/02/02 02:08:25;;;;;;;11.27;6.50;;;;;20.30;100901.00;;;;2084473;28;20216;-52
2023/02/02 02:09:26;;;;;;;8.20;5.70;;;;;20.30;100911.00;;;;2094331;28;20710;-52
2023/02/02 02:10:26;;;;;;;8.50;5.80;;;;;20.30;100907.00;;;;2102850;28;20223;-52
2023/02/02 02:11:26;;;;;;;10.73;5.87;;;;;20.30;100908.00;;;;2102587;28;20211;-52
2023/02/02 02:12:27;;;;;;;9.10;5.80;;;;;20.20;100921.00;;;;2102911;28;20666;-52
2023/02/02 02:16:18;;;;;;;8.00;5.35;;;;;20.20;100901.00;;;;2091505;28;20204;-52
2023/02/02 02:17:36;;;;;;;7.30;4.63;;;;;20.20;100913.00;;;;2086309;28;20239;-52
2023/02/02 02:18:53;;;;;;;7.63;5.53;;;;;20.30;100914.00;;;;2082986;28;20669;-51
2023/02/02 02:27:02;;;;;;;9.02;5.30;;;;;20.20;100897.00;;;;2102827;28;20212;-51
2023/02/02 02:28:39;;;;;;;8.00;5.07;;;;;20.20;100897.00;;;;2102425;28;20215;-51
2023/02/02 02:30:21;;;;;;;8.68;5.35;;;;;20.20;100903.00;;;;2103114;28;20624;-52
2023/02/02 02:31:35;;;;;;;8.27;3.90;;;;;20.20;100894.00;;;;2094230;28;20220;-52
2023/02/02 02:33:08;;;;;;;7.53;4.57;;;;;20.20;100889.00;;;;2087497;28;20219;-51
2023/02/02 02:34:21;;;;;;;8.60;4.57;;;;;20.20;100898.00;;;;2077403;28;20221;-52
2023/02/02 02:35:37;;;;;;;8.25;4.28;;;;;20.20;100894.00;;;;2070887;28;20776;-52
2023/02/02 02:36:58;;;;;;;7.63;4.40;;;;;20.00;100907.00;;;;2077644;28;21038;-52
2023/02/02 02:38:25;;;;;;;8.18;4.50;;;;;20.20;100905.00;;;;2082193;28;20283;-52
2023/02/02 02:39:34;;;;;;;8.05;4.00;;;;;20.20;100913.00;;;;2094413;28;20683;-51
2023/02/02 02:40:36;;;;;;;8.50;4.45;;;;;20.20;100911.00;;;;2078476;28;20210;-52
2023/02/02 02:41:40;;;;;;;7.93;4.20;;;;;20.20;100903.00;;;;2086174;28;20237;-52
2023/02/02 02:42:44;;;;;;;6.20;3.80;;;;;20.20;100898.00;;;;2078418;28;20320;-52
2023/02/02 02:43:47;;;;;;;7.03;4.50;;;;;20.10;100895.00;;;;2070669;28;20809;-52
2023/02/02 02:44:48;;;;;;;8.85;4.20;;;;;20.20;100904.00;;;;2079012;28;20216;-52
2023/02/02 02:45:48;;;;;;;6.83;4.13;;;;;20.10;100906.00;;;;2085271;28;20216;-51
2023/02/02 02:46:49;;;;;;;8.37;4.27;;;;;20.10;100909.00;;;;2085381;28;21228;-52
2023/02/02 02:47:49;;;;;;;6.77;4.00;;;;;20.10;100904.00;;;;2084984;28;20212;-52
2023/02/02 02:48:49;;;;;;;6.67;3.87;;;;;20.10;100912.00;;;;2084482;28;20217;-52
2023/02/02 02:49:50;;;;;;;7.17;3.40;;;;;20.20;100908.00;;;;2093764;28;20305;-52
2023/02/02 02:50:50;;;;;;;6.83;4.23;;;;;20.20;100913.00;;;;2102816;28;20223;-52
2023/02/02 02:51:52;;;;;;;6.50;3.70;;;;;20.20;100923.00;;;;2103381;28;20231;-51
2023/02/02 02:53:00;;;;;;;5.97;3.95;;;;;20.20;100911.00;;;;2103073;28;20307;-52
2023/02/02 02:54:01;;;;;;;7.65;4.43;;;;;20.10;100916.00;;;;2085975;28;20215;-52
2023/02/02 02:55:03;;;;;;;6.17;3.87;;;;;20.10;100902.00;;;;2076766;28;20580;-52
2023/02/02 02:56:12;;;;;;;7.13;4.03;;;;;20.10;100910.00;;;;2094280;28;20469;-53
2023/02/02 02:57:46;;;;;;;5.30;3.75;;;;;20.10;100908.00;;;;2088966;28;20208;-52
2023/02/02 02:58:50;;;;;;;6.88;3.75;;;;;20.10;100911.00;;;;2093435;28;20262;-51
2023/02/02 03:00:17;;;;;;;7.30;3.65;;;;;20.10;100909.00;;;;2086714;28;20208;-52
2023/02/02 03:01:24;;;;;;;7.68;3.58;;;;;20.10;100911.00;;;;2097791;28;20207;-52
2023/02/02 03:02:30;;;;;;;6.28;3.63;;;;;20.10;100921.00;;;;2094322;28;20246;-52
2023/02/02 03:03:52;;;;;;;6.53;3.60;;;;;20.10;100916.00;;;;2087019;28;20629;-51
2023/02/02 03:04:55;;;;;;;6.20;3.40;;;;;20.10;100909.00;;;;2096979;28;20215;-52
2023/02/02 03:06:12;;;;;;;5.90;3.50;;;;;20.10;100904.00;;;;2103246;28;20222;-52
2023/02/02 03:07:34;;;;;;;7.10;3.42;;;;;20.10;100914.00;;;;2093843;28;20281;-52
2023/02/02 03:08:39;;;;;;;5.70;3.10;;;;;20.10;100906.00;;;;2092117;28;21275;-52
2023/02/02 03:09:41;;;;;;;7.80;3.88;;;;;20.00;100908.00;;;;2085952;28;20221;-52
2023/02/02 03:10:41;;;;;;;5.20;3.38;;;;;20.00;100909.00;;;;2084192;28;20221;-52
2023/02/02 03:11:42;;;;;;;7.17;3.77;;;;;20.00;100910.00;;;;2085978;28;20697;-52
2023/02/02 03:12:46;;;;;;;5.80;3.20;;;;;20.10;100897.00;;;;2077301;28;20213;-53
2023/02/02 03:13:46;;;;;;;7.40;3.67;;;;;20.10;100909.00;;;;2094329;28;20204;-52
2023/02/02 03:14:47;;;;;;;5.43;3.20;;;;;20.00;100904.00;;;;2094093;28;20707;-52
2023/02/02 03:15:47;;;;;;;6.53;3.67;;;;;20.10;100905.00;;;;2094347;28;20208;-52
2023/02/02 03:16:50;;;;;;;7.07;3.87;;;;;20.00;100909.00;;;;2103268;28;20215;-52
2023/02/02 03:17:50;;;;;;;8.40;3.60;;;;;20.00;100903.00;;;;2102813;28;20691;-52
2023/02/02 03:18:51;;;;;;;6.20;3.50;;;;;20.00;100902.00;;;;2093557;28;20208;-52
2023/02/02 03:19:51;;;;;;;6.17;3.33;;;;;20.00;100902.00;;;;2093525;28;20267;-52
2023/02/02 03:20:51;;;;;;;6.23;3.40;;;;;20.00;100900.00;;;;2103048;28;20683;-51
2023/02/02 03:21:52;;;;;;;5.80;3.20;;;;;20.00;100909.00;;;;2102834;28;20740;-53
2023/02/02 03:22:52;;;;;;;6.93;3.33;;;;;20.00;100898.00;;;;2102524;28;20231;-52
2023/02/02 03:23:52;;;;;;;6.20;3.20;;;;;20.00;100906.00;;;;2103046;28;20265;-52
2023/02/02 03:24:53;;;;;;;6.73;3.73;;;;;20.00;100900.00;;;;2102988;28;20252;-52
2023/02/02 03:25:54;;;;;;;5.30;3.00;;;;;20.00;100904.00;;;;2103138;28;20214;-52
2023/02/02 03:26:55;;;;;;;5.57;3.25;;;;;20.00;100900.00;;;;2093928;28;20216;-52
2023/02/02 03:27:55;;;;;;;5.40;3.40;;;;;20.00;100893.00;;;;2093742;28;20223;-52
2023/02/02 03:28:56;;;;;;;5.40;3.07;;;;;20.00;100890.00;;;;2087360;28;20212;-52
2023/02/02 03:29:56;;;;;;;4.60;2.90;;;;;20.00;100894.00;;;;2085808;28;20208;-51
2023/02/02 03:30:57;;;;;;;5.73;3.60;;;;;20.00;100901.00;;;;2093478;28;20312;-51
2023/02/02 03:31:58;;;;;;;4.97;3.30;;;;;20.00;100885.00;;;;2103133;28;20238;-52
2023/02/02 03:32:58;;;;;;;4.77;3.63;;;;;20.00;100898.00;;;;2093850;28;21051;-51
2023/02/02 03:33:58;;;;;;;4.73;3.33;;;;;20.00;100893.00;;;;2094155;28;21227;-52
2023/02/02 03:34:58;;;;;;;5.43;3.50;;;;;20.00;100890.00;;;;2102999;28;20551;-52
2023/02/02 03:35:59;;;;;;;6.63;3.30;;;;;20.00;100909.00;;;;2103083;28;21008;-52
2023/02/02 03:36:59;;;;;;;4.87;3.23;;;;;20.00;100894.00;;;;2102815;28;20693;-52
2023/02/02 03:37:59;;;;;;;5.70;3.40;;;;;20.00;100898.00;;;;2102166;28;20670;-52
2023/02/02 03:39:00;;;;;;;6.27;3.40;;;;;20.00;100895.00;;;;2102986;28;20207;-52
2023/02/02 03:40:00;;;;;;;5.50;3.00;;;;;20.00;100903.00;;;;2102760;28;20211;-52
2023/02/02 03:41:00;;;;;;;4.90;3.20;;;;;19.90;100905.00;;;;2103044;28;20211;-52
2023/02/02 03:42:01;;;;;;;7.60;3.57;;;;;19.90;100895.00;;;;2102565;28;20298;-52
2023/02/02 03:43:01;;;;;;;5.43;3.40;;;;;20.00;100894.00;;;;2103063;28;20261;-52
2023/02/02 03:44:02;;;;;;;6.43;3.83;;;;;19.90;100898.00;;;;2093636;28;20219;-51
2023/02/02 03:45:02;;;;;;;6.17;3.37;;;;;19.90;100898.00;;;;2094210;28;20208;-52
2023/02/02 03:46:04;;;;;;;5.97;3.90;;;;;20.00;100894.00;;;;2102894;28;20280;-53
2023/02/02 03:47:04;;;;;;;5.65;3.40;;;;;20.00;100895.00;;;;2102936;28;20208;-52
2023/02/02 03:48:05;;;;;;;6.47;3.30;;;;;20.00;100901.00;;;;2101918;28;20261;-51
2023/02/02 03:49:05;;;;;;;4.37;3.10;;;;;20.00;100895.00;;;;2103059;28;20260;-51
2023/02/02 03:50:06;;;;;;;8.07;3.80;;;;;20.00;100898.00;;;;2102881;28;20215;-52
2023/02/02 03:51:08;;;;;;;4.03;3.40;;;;;19.90;100889.00;;;;2102870;28;20703;-52
2023/02/02 03:52:08;;;;;;;5.68;3.03;;;;;20.00;100896.00;;;;2103113;28;20441;-52
2023/02/02 03:53:08;;;;;;;6.57;4.13;;;;;20.00;100898.00;;;;2102589;28;20234;-52
2023/02/02 03:54:09;;;;;;;4.23;3.30;;;;;20.00;100901.00;;;;2102785;28;20237;-52
2023/02/02 03:55:09;;;;;;;6.30;3.47;;;;;20.00;100900.00;;;;2103014;28;20214;-52
2023/02/02 03:56:09;;;;;;;4.50;3.10;;;;;19.90;100903.00;;;;2103005;28;20215;-52
2023/02/02 03:57:10;;;;;;;7.80;4.13;;;;;19.90;100904.00;;;;2102979;28;20649;-52
2023/02/02 03:58:10;;;;;;;5.40;3.73;;;;;19.90;100904.00;;;;2101760;28;20878;-51
2023/02/02 03:59:10;;;;;;;5.73;3.93;;;;;20.00;100906.00;;;;2103002;28;20264;-51
2023/02/02 04:00:11;;;;;;;5.23;3.57;;;;;19.90;100902.00;;;;2103128;28;20219;-52
2023/02/02 04:01:12;;;;;;;5.23;3.50;;;;;19.90;100904.00;;;;2101778;28;20281;-55
2023/02/02 04:02:12;;;;;;;5.07;3.40;;;;;19.90;100903.00;;;;2094158;28;20677;-53
2023/02/02 04:03:13;;;;;;;5.17;3.80;;;;;19.90;100899.00;;;;2094006;28;20504;-52
2023/02/02 04:04:13;;;;;;;4.10;3.70;;;;;19.90;100906.00;;;;2102175;28;20712;-53
2023/02/02 04:05:13;;;;;;;4.50;3.60;;;;;19.90;100909.00;;;;2102956;28;20686;-52
2023/02/02 04:06:14;;;;;;;5.63;3.60;;;;;19.90;100903.00;;;;2102579;28;20963;-53
2023/02/02 04:07:14;;;;;;;6.13;4.10;;;;;19.90;100902.00;;;;2101684;28;21222;-53
2023/02/02 04:08:14;;;;;;;5.17;3.47;;;;;19.90;100907.00;;;;2101449;28;20694;-52
2023/02/02 04:09:14;;;;;;;5.93;4.17;;;;;19.90;100904.00;;;;2102195;28;20219;-51
2023/02/02 04:10:16;;;;;;;7.73;4.30;;;;;19.90;100869.00;;;;2102511;28;20245;-52
2023/02/02 04:11:16;;;;;;;6.57;3.75;;;;;19.90;100912.00;;;;2101863;28;20234;-51
2023/02/02 04:12:17;;;;;;;7.60;4.00;;;;;19.90;100903.00;;;;2100759;28;20265;-52
2023/02/02 04:13:17;;;;;;;5.00;3.77;;;;;19.90;100909.00;;;;2099998;28;20501;-52
2023/02/02 04:14:17;;;;;;;6.10;3.97;;;;;19.90;100903.00;;;;2101128;28;20223;-52
2023/02/02 04:15:18;;;;;;;4.70;3.37;;;;;19.90;100900.00;;;;2102332;28;20615;-52
2023/02/02 04:16:18;;;;;;;5.47;3.67;;;;;19.90;100907.00;;;;2101794;28;20223;-52
2023/02/02 04:17:18;;;;;;;6.83;4.37;;;;;19.90;100901.00;;;;2093371;28;20244;-51
2023/02/02 04:18:19;;;;;;;4.97;3.63;;;;;19.90;100905.00;;;;2092397;28;20216;-53
2023/02/02 04:19:19;;;;;;;5.50;4.10;;;;;19.90;100912.00;;;;2101587;28;20214;-52
2023/02/02 04:20:19;;;;;;;4.93;3.77;;;;;19.90;100911.00;;;;2101809;28;20226;-52
2023/02/02 04:21:20;;;;;;;5.23;3.30;;;;;19.90;100912.00;;;;2102283;28;20226;-52
2023/02/02 04:22:20;;;;;;;8.30;4.40;;;;;19.90;100907.00;;;;2102425;28;20215;-53
2023/02/02 04:23:20;;;;;;;6.63;4.27;;;;;19.80;100912.00;;;;2102204;28;20280;-52
2023/02/02 04:24:21;;;;;;;6.50;4.40;;;;;19.80;100913.00;;;;2102007;28;20310;-51
2023/02/02 04:25:21;;;;;;;5.90;4.13;;;;;19.80;100908.00;;;;2101325;28;20671;-52
2023/02/02 04:26:24;;;;;;;6.90;4.30;;;;;19.80;100911.00;;;;2102297;28;20230;-52
2023/02/02 04:27:24;;;;;;;5.30;3.45;;;;;19.80;100920.00;;;;2093538;28;20299;-52
2023/02/02 04:28:25;;;;;;;6.23;3.80;;;;;19.90;100914.00;;;;2092677;28;20727;-50
2023/02/02 04:29:25;;;;;;;3.93;3.30;;;;;19.90;100909.00;;;;2102960;28;20730;-54
2023/02/02 04:30:26;;;;;;;5.30;3.70;;;;;19.80;100905.00;;;;2102932;28;20869;-53
2023/02/02 04:31:28;;;;;;;5.27;3.80;;;;;19.80;100917.00;;;;2102791;28;20899;-54
2023/02/02 04:32:28;;;;;;;6.60;4.38;;;;;19.90;100922.00;;;;2104319;28;20295;-54
2023/02/02 04:33:29;;;;;;;6.67;3.50;;;;;19.80;100916.00;;;;2103248;28;20219;-50
2023/02/02 04:34:29;;;;;;;5.97;3.50;;;;;19.80;100911.00;;;;2104355;28;20243;-52
2023/02/02 04:35:29;;;;;;;8.13;4.53;;;;;19.80;100907.00;;;;2104093;28;20213;-50
2023/02/02 04:36:30;;;;;;;5.17;4.00;;;;;19.80;100920.00;;;;2104219;28;20214;-53
2023/02/02 04:37:31;;;;;;;4.93;3.50;;;;;19.80;100912.00;;;;2104437;28;20218;-51
2023/02/02 04:38:31;;;;;;;5.43;3.10;;;;;19.80;100908.00;;;;2103583;28;20212;-52
2023/02/02 04:39:31;;;;;;;6.10;3.40;;;;;19.80;100901.00;;;;2104346;28;20242;-51
2023/02/02 04:40:32;;;;;;;6.50;3.70;;;;;19.80;100906.00;;;;2103885;28;20577;-53
2023/02/02 04:41:32;;;;;;;5.60;3.23;;;;;19.80;100909.00;;;;2095248;28;20204;-53
2023/02/02 04:42:33;;;;;;;6.70;4.00;;;;;19.80;100918.00;;;;2094920;28;20200;-53
2023/02/02 04:43:34;;;;;;;6.65;3.35;;;;;19.80;100914.00;;;;2104162;28;20264;-51
2023/02/02 04:44:35;;;;;;;7.82;3.60;;;;;19.80;100913.00;;;;2104205;28;20290;-50
2023/02/02 04:45:35;;;;;;;6.30;3.60;;;;;19.80;100912.00;;;;2104156;28;20616;-53
2023/02/02 04:46:35;;;;;;;7.73;4.20;;;;;19.80;100917.00;;;;2104277;28;20265;-54
2023/02/02 04:47:36;;;;;;;7.60;3.57;;;;;19.80;100918.00;;;;2104087;28;20227;-51
2023/02/02 04:48:36;;;;;;;6.47;3.30;;;;;19.80;100911.00;;;;2103268;28;20222;-51
2023/02/02 04:49:36;;;;;;;7.47;3.77;;;;;19.80;100909.00;;;;2103867;28;20204;-54
2023/02/02 04:50:37;;;;;;;6.73;3.50;;;;;19.80;100911.00;;;;2104077;28;20207;-54
2023/02/02 04:51:38;;;;;;;6.97;3.50;;;;;19.80;100919.00;;;;2104234;28;20242;-54
2023/02/02 04:52:38;;;;;;;5.93;3.60;;;;;19.70;100917.00;;;;2103934;28;20219;-52
2023/02/02 04:53:39;;;;;;;8.90;4.20;;;;;19.70;100911.00;;;;2103748;28;20211;-53
2023/02/02 04:54:39;;;;;;;8.67;4.00;;;;;19.70;100913.00;;;;2095199;28;20211;-53
2023/02/02 04:55:40;;;;;;;6.10;3.70;;;;;19.80;100916.00;;;;2095112;28;20458;-51
2023/02/02 04:56:40;;;;;;;6.80;3.20;;;;;19.70;100919.00;;;;2103593;28;20228;-53
2023/02/02 04:57:40;;;;;;;5.90;3.30;;;;;19.70;100918.00;;;;2104035;28;20298;-51
2023/02/02 04:58:41;;;;;;;5.53;2.80;;;;;19.80;100914.00;;;;2103088;28;20243;-51
2023/02/02 04:59:41;;;;;;;7.67;4.17;;;;;19.80;100913.00;;;;2103304;28;22235;-53
2023/02/02 05:00:42;;;;;;;6.40;3.40;;;;;19.80;100909.00;;;;2104179;28;20219;-53
2023/02/02 05:01:42;;;;;;;6.80;3.23;;;;;19.70;100909.00;;;;2103860;28;20234;-53
2023/02/02 05:02:42;;;;;;;5.67;3.07;;;;;19.70;100919.00;;;;2104206;28;20220;-50
2023/02/02 05:03:43;;;;;;;6.80;3.33;;;;;19.70;100914.00;;;;2103410;28;20207;-50
2023/02/02 05:04:43;;;;;;;6.37;3.70;;;;;19.70;100913.00;;;;2104003;28;20215;-53
2023/02/02 05:05:44;;;;;;;5.40;3.10;;;;;19.70;100910.00;;;;2103602;28;20219;-54
2023/02/02 05:06:44;;;;;;;4.97;3.30;;;;;19.70;100912.00;;;;2104133;28;20243;-54
2023/02/02 05:07:44;;;;;;;5.03;2.93;;;;;19.70;100913.00;;;;2103954;28;20218;-54
2023/02/02 05:08:46;;;;;;;5.13;3.40;;;;;19.70;100912.00;;;;2102922;28;20698;-53
2023/02/02 05:09:47;;;;;;;5.85;3.60;;;;;19.70;100916.00;;;;2103919;28;20239;-54
2023/02/02 05:10:49;;;;;;;6.27;3.30;;;;;19.70;100909.00;;;;2103970;28;20675;-52
2023/02/02 05:11:49;;;;;;;6.93;3.20;;;;;19.70;100917.00;;;;2103871;28;20801;-54
2023/02/02 05:12:51;;;;;;;6.33;2.90;;;;;19.70;100902.00;;;;2103923;28;20235;-50
2023/02/02 05:13:52;;;;;;;7.47;3.10;;;;;19.70;100911.00;;;;2102020;28;20234;-53
2023/02/02 05:14:53;;;;;;;3.80;2.53;;;;;19.70;100910.00;;;;2103663;28;20249;-53
2023/02/02 05:15:54;;;;;;;7.43;2.60;;;;;19.70;100903.00;;;;2094861;28;20457;-52
2023/02/02 05:16:54;;;;;;;7.60;3.10;;;;;19.70;100910.00;;;;2094962;28;20224;-53
2023/02/02 05:17:54;;;;;;;10.33;3.30;;;;;19.70;100903.00;;;;2103513;28;20460;-53